»·PEaware :: UAL465 KSFO-KLAS

UAL465 :: KSFO-KLAS

FLIGHT INFORMATION

Flight Status: Arrived
Operator:
United Airlines
More flights by this operator :: More flights under this callsign
Pilot: Matt G. (13672)
Aircraft: AIRBUS A320
(A320)
More flights by this aircraft type
Origin: KSFO San Francisco Intl
United States
Destination: KLAS McCarran Intl
United States
More flights between these airports :: More routes between these airports
Route: +SSTIK3 NTELL Q162 ESSAA BTY SUNST4
File this flight plan on PilotEdge
Remarks: Will request ILS 26L
Altitude:
(Current/Filed)
30,000ft
Speed:
(Current/Filed)
432kts
Departed: 24-Dec-17 09:12 AM
Arrived: 24-Dec-17 10:18 AM
Distance/Time
Traveled:
359nm/1:06
Distance/Time
To Go:
Arrived

Flight Plot

Page will automatically refresh every two minutes.

Flight plan parsing failed; only flown route is shown


Map Options




Map Legend


Flown Route
Filed Route
Departure Airport
Arrival Airport
Navaid (VOR, NDB)
Fix

Horizontal Profiles

Position Reports

Time Latitude Longitude Heading Altitude Ground
Speed
24-Dec-17 08:34 37.619195 -122.383546 291 21ft 0kts
24-Dec-17 08:35 37.619195 -122.383546 291 21ft 0kts
24-Dec-17 08:36 37.619195 -122.383546 291 21ft 0kts
24-Dec-17 08:37 37.619195 -122.383546 291 21ft 0kts
24-Dec-17 08:38 37.619195 -122.383546 291 21ft 0kts
24-Dec-17 08:39 37.619195 -122.383546 291 21ft 0kts
24-Dec-17 08:40 37.619195 -122.383546 291 21ft 0kts
24-Dec-17 08:41 37.619195 -122.383546 291 21ft 0kts
24-Dec-17 08:42 37.619195 -122.383546 291 21ft 0kts
24-Dec-17 08:43 37.619195 -122.383546 291 21ft 0kts
24-Dec-17 08:44 37.619195 -122.383546 291 21ft 0kts
24-Dec-17 08:45 37.619195 -122.383546 291 21ft 0kts
24-Dec-17 08:46 37.619195 -122.383546 291 21ft 0kts
24-Dec-17 08:47 37.619195 -122.383546 291 21ft 0kts
24-Dec-17 08:48 37.619195 -122.383546 291 21ft 0kts
24-Dec-17 08:49 37.619195 -122.383546 291 21ft 0kts
24-Dec-17 08:50 37.619195 -122.383546 291 21ft 0kts
24-Dec-17 08:51 37.619195 -122.383546 291 21ft 0kts
24-Dec-17 08:52 37.619195 -122.383546 291 21ft 0kts
24-Dec-17 08:53 37.619195 -122.383546 291 21ft 0kts
24-Dec-17 08:54 37.619195 -122.383546 291 21ft 0kts
24-Dec-17 08:55 37.619195 -122.383546 291 21ft 0kts
24-Dec-17 08:56 37.619195 -122.383546 291 21ft 0kts
24-Dec-17 08:57 37.619195 -122.383546 291 21ft 0kts
24-Dec-17 08:58 37.619195 -122.383546 291 21ft 0kts
24-Dec-17 08:59 37.619195 -122.383546 291 21ft 0kts
24-Dec-17 09:00 37.619195 -122.383546 291 21ft 0kts
24-Dec-17 09:01 37.619195 -122.383546 291 21ft 0kts
24-Dec-17 09:02 37.619195 -122.383546 291 21ft 0kts
24-Dec-17 09:03 37.619195 -122.383545 291 21ft 0kts
24-Dec-17 09:04 37.619195 -122.383545 291 21ft 0kts
24-Dec-17 09:05 37.619195 -122.383545 291 21ft 0kts
24-Dec-17 09:06 37.619195 -122.383545 291 21ft 0kts
24-Dec-17 09:07 37.618993 -122.383233 330 21ft 2kts
24-Dec-17 09:08 37.618435 -122.383264 31 21ft 1kts
24-Dec-17 09:09 37.618320 -122.383340 30 21ft 0kts
24-Dec-17 09:10 37.618306 -122.383350 31 21ft 0kts
24-Dec-17 09:11 37.618306 -122.383350 31 21ft 0kts
24-Dec-17 09:12 37.619640 -122.382264 67 21ft 17kts
24-Dec-17 09:13 37.616895 -122.379568 195 21ft 0kts
24-Dec-17 09:14 37.616895 -122.379568 195 21ft 0kts
24-Dec-17 09:15 37.613829 -122.381490 207 21ft 36kts
24-Dec-17 09:16 37.608486 -122.383889 116 21ft 0kts
24-Dec-17 09:17 37.608476 -122.383864 116 21ft 2kts
24-Dec-17 09:18 37.624125 -122.372188 28 242ft 164kts
24-Dec-17 09:19 37.670809 -122.361518 7 2794ft 200kts
24-Dec-17 09:20 37.709806 -122.407265 258 4751ft 265kts
24-Dec-17 09:21 37.653561 -122.451577 186 7829ft 266kts
24-Dec-17 09:22 37.580027 -122.461406 187 9904ft 269kts
24-Dec-17 09:23 37.509565 -122.469447 174 10003ft 288kts
24-Dec-17 09:24 37.449655 -122.405493 128 10816ft 316kts
24-Dec-17 09:25 37.404441 -122.304958 106 12072ft 377kts
24-Dec-17 09:26 37.380400 -122.182001 106 13836ft 395kts
24-Dec-17 09:27 37.354910 -122.053988 107 15574ft 408kts
24-Dec-17 09:28 37.329549 -121.927479 107 17078ft 421kts
24-Dec-17 09:29 37.303201 -121.796884 107 18471ft 433kts
24-Dec-17 09:30 37.276364 -121.664707 107 19743ft 443kts
24-Dec-17 09:31 37.245938 -121.515848 107 21037ft 455kts
24-Dec-17 09:32 37.216887 -121.374672 107 22150ft 465kts
24-Dec-17 09:33 37.192770 -121.258164 108 22987ft 472kts
24-Dec-17 09:34 37.160503 -121.103255 107 24026ft 480kts
24-Dec-17 09:35 37.127834 -120.947318 107 25837ft 467kts
24-Dec-17 09:36 37.096217 -120.797270 107 28849ft 425kts
24-Dec-17 09:37 37.067156 -120.660906 106 30325ft 426kts
24-Dec-17 09:38 37.044054 -120.553389 106 30361ft 456kts
24-Dec-17 09:39 37.004941 -120.371697 105 30350ft 496kts
24-Dec-17 09:40 36.978117 -120.247806 106 30350ft 511kts
24-Dec-17 09:41 36.945189 -120.096517 106 30349ft 510kts
24-Dec-17 09:42 36.911119 -119.926554 94 30356ft 512kts
24-Dec-17 09:43 36.950415 -119.734459 64 30381ft 505kts
24-Dec-17 09:44 36.994099 -119.601093 64 30341ft 504kts
24-Dec-17 09:45 37.045840 -119.441730 64 30307ft 505kts
24-Dec-17 09:46 37.075175 -119.311983 88 30321ft 515kts
24-Dec-17 09:47 37.064085 -119.171328 98 30394ft 515kts
24-Dec-17 09:48 37.046519 -118.995413 97 30422ft 515kts
24-Dec-17 09:49 37.028913 -118.819727 96 30392ft 516kts
24-Dec-17 09:50 37.011022 -118.643846 96 30400ft 516kts
24-Dec-17 09:51 36.992854 -118.467259 96 30400ft 515kts
24-Dec-17 09:52 36.978518 -118.330668 97 30393ft 514kts
24-Dec-17 09:53 36.960373 -118.159577 97 30380ft 512kts
24-Dec-17 09:54 36.941613 -117.985019 97 30369ft 511kts
24-Dec-17 09:55 36.922530 -117.809895 97 30372ft 512kts
24-Dec-17 09:56 36.903084 -117.633900 97 30383ft 512kts
24-Dec-17 09:57 36.885477 -117.476609 97 30390ft 512kts
24-Dec-17 09:58 36.868643 -117.328005 97 30388ft 512kts
24-Dec-17 09:59 36.849321 -117.159429 98 30330ft 512kts
24-Dec-17 10:00 36.829327 -116.987274 97 28001ft 509kts
24-Dec-17 10:01 36.809302 -116.816934 98 25360ft 495kts
24-Dec-17 10:02 36.747066 -116.671207 133 24366ft 479kts
24-Dec-17 10:03 36.660184 -116.547475 133 24368ft 480kts
24-Dec-17 10:04 36.572701 -116.423279 133 24123ft 481kts
24-Dec-17 10:05 36.489759 -116.305907 134 21643ft 453kts
24-Dec-17 10:06 36.411905 -116.196134 134 19910ft 431kts
24-Dec-17 10:07 36.333917 -116.086693 133 17590ft 426kts
24-Dec-17 10:08 36.257286 -115.979363 133 16006ft 393kts
24-Dec-17 10:09 36.194681 -115.881693 113 15559ft 346kts
24-Dec-17 10:10 36.160687 -115.775754 112 14733ft 324kts
24-Dec-17 10:11 36.128058 -115.674533 112 13718ft 319kts
24-Dec-17 10:12 36.095726 -115.574449 112 12721ft 313kts
24-Dec-17 10:13 36.063835 -115.476061 112 11737ft 306kts
24-Dec-17 10:14 36.033768 -115.383379 109 11026ft 285kts
24-Dec-17 10:15 36.025042 -115.292213 95 10034ft 276kts
24-Dec-17 10:16 36.018499 -115.203026 96 9010ft 269kts
24-Dec-17 10:17 36.012445 -115.113145 94 8145ft 255kts
24-Dec-17 10:18 36.029436 -115.038693 24 7759ft 235kts
24-Dec-17 10:19 36.088880 -115.009479 14 6829ft 227kts
24-Dec-17 10:20 36.146105 -115.011707 305 5898ft 219kts
24-Dec-17 10:21 36.164535 -115.080369 287 4731ft 208kts
24-Dec-17 10:22 36.143489 -115.130113 206 3245ft 184kts
24-Dec-17 10:23 36.106666 -115.152478 205 2362ft 148kts
24-Dec-17 10:24 36.082273 -115.166248 182 2120ft 27kts
24-Dec-17 10:25 36.081615 -115.164461 87 2120ft 25kts
24-Dec-17 10:26 36.081616 -115.161839 92 2120ft 0kts
24-Dec-17 10:27 36.081541 -115.155543 111 2120ft 47kts
24-Dec-17 10:28 36.078275 -115.143307 94 2120ft 30kts
24-Dec-17 10:29 36.082131 -115.140097 46 2120ft 5kts
24-Dec-17 10:30 36.082198 -115.140010 46 2120ft 0kts

Navigation Log

Ident Type
Flight plan parsing failed, navigation log unavailable